Time;durP1;ratioP1;P1;durP2;ratioP2;P2;SDS_P1;SDS_P2;PMS_P1;PMS_P2;Temp;Humidity;BMP_temperature;BMP_pressure;BME280_temperature;BME280_humidity;BME280_pressure;Samples;Min_cycle;Max_cycle;Signal;HPM_P1;HPM_P2
2022/06/30 00:00:41;;;;;;;16.77;8.30;;;;;;;;;;5001286;28;20651;-41
2022/06/30 00:03:08;;;;;;;18.20;7.10;;;;;;;;;;5001553;28;20691;-40
2022/06/30 00:05:34;;;;;;;18.63;7.67;;;;;;;;;;5002557;28;20709;-41
2022/06/30 00:08:00;;;;;;;11.80;6.33;;;;;;;;;;4998839;28;20630;-40
2022/06/30 00:10:27;;;;;;;11.70;6.60;;;;;;;;;;4995609;28;20184;-40
2022/06/30 00:12:53;;;;;;;13.20;6.83;;;;;;;;;;4995643;28;21087;-41
2022/06/30 00:15:20;;;;;;;14.43;6.67;;;;;;;;;;4996542;28;20237;-41
2022/06/30 00:17:46;;;;;;;13.43;6.53;;;;;;;;;;4995843;28;20192;-42
2022/06/30 00:20:12;;;;;;;10.43;5.70;;;;;;;;;;4998046;28;20200;-39
2022/06/30 00:22:38;;;;;;;12.33;6.50;;;;;;;;;;4996819;28;20184;-39
2022/06/30 00:25:04;;;;;;;17.33;6.80;;;;;;;;;;4994035;28;20184;-41
2022/06/30 00:27:30;;;;;;;10.00;6.00;;;;;;;;;;4997776;28;20572;-42
2022/06/30 00:29:57;;;;;;;12.93;6.53;;;;;;;;;;4996390;28;20181;-42
2022/06/30 00:32:23;;;;;;;15.17;6.13;;;;;;;;;;4995633;28;20619;-40
2022/06/30 00:34:49;;;;;;;14.40;6.20;;;;;;;;;;4995496;28;20924;-40
2022/06/30 00:37:15;;;;;;;17.17;6.43;;;;;;;;;;4996323;28;20656;-41
2022/06/30 00:39:41;;;;;;;11.13;5.83;;;;;;;;;;4997917;28;20767;-41
2022/06/30 00:42:08;;;;;;;13.07;6.70;;;;;;;;;;4994574;28;20180;-43
2022/06/30 00:44:34;;;;;;;12.37;6.33;;;;;;;;;;4997745;28;20256;-40
2022/06/30 00:47:00;;;;;;;12.40;6.00;;;;;;;;;;4999477;28;20241;-41
2022/06/30 00:49:28;;;;;;;16.13;6.40;;;;;;;;;;4998872;28;20242;-41
2022/06/30 00:51:54;;;;;;;9.37;5.67;;;;;;;;;;4995192;28;20350;-41
2022/06/30 00:54:22;;;;;;;12.23;6.03;;;;;;;;;;5001880;28;20826;-41
2022/06/30 00:56:48;;;;;;;12.37;6.60;;;;;;;;;;5000406;28;20184;-41
2022/06/30 00:59:16;;;;;;;8.77;5.83;;;;;;;;;;4999601;28;21020;-41
2022/06/30 01:01:43;;;;;;;10.63;6.30;;;;;;;;;;4996426;28;20730;-41
2022/06/30 01:04:09;;;;;;;11.87;7.00;;;;;;;;;;5002171;28;20879;-40
2022/06/30 01:06:37;;;;;;;12.50;6.50;;;;;;;;;;4998546;28;20526;-39
2022/06/30 01:09:03;;;;;;;11.03;7.10;;;;;;;;;;4995563;28;20660;-41
2022/06/30 01:14:18;;;;;;;11.63;7.10;;;;;;;;;;4995832;28;20190;-41
2022/06/30 01:16:45;;;;;;;13.90;8.13;;;;;;;;;;5000182;28;20438;-41
2022/06/30 01:19:12;;;;;;;11.77;7.43;;;;;;;;;;4997087;28;20210;-41
2022/06/30 01:21:39;;;;;;;15.03;8.47;;;;;;;;;;4990146;28;21014;-41
2022/06/30 01:24:05;;;;;;;12.10;7.40;;;;;;;;;;4995873;28;20188;-41
2022/06/30 01:26:32;;;;;;;16.93;9.10;;;;;;;;;;4994625;28;20711;-41
2022/06/30 01:28:58;;;;;;;14.97;8.93;;;;;;;;;;4998156;28;20223;-41
2022/06/30 01:31:24;;;;;;;14.47;8.50;;;;;;;;;;4997162;28;20191;-42
2022/06/30 01:33:51;;;;;;;12.53;6.90;;;;;;;;;;4996959;28;20632;-40
2022/06/30 01:36:17;;;;;;;13.93;7.07;;;;;;;;;;4999732;28;20400;-40
2022/06/30 01:38:43;;;;;;;9.13;6.67;;;;;;;;;;5000520;28;20636;-41
2022/06/30 01:41:09;;;;;;;11.47;6.53;;;;;;;;;;4997388;28;20452;-39
2022/06/30 01:43:35;;;;;;;10.73;6.73;;;;;;;;;;4997813;28;20184;-40
2022/06/30 01:46:02;;;;;;;12.53;7.10;;;;;;;;;;4996064;28;20880;-41
2022/06/30 01:48:29;;;;;;;13.67;6.40;;;;;;;;;;4990445;28;20608;-44
2022/06/30 01:50:55;;;;;;;13.73;7.17;;;;;;;;;;4996140;28;20373;-44
2022/06/30 01:53:21;;;;;;;9.67;6.20;;;;;;;;;;4994682;28;20168;-43
2022/06/30 01:55:47;;;;;;;16.17;6.70;;;;;;;;;;4994885;28;20591;-42
2022/06/30 01:58:13;;;;;;;13.07;6.33;;;;;;;;;;4999045;28;20379;-41
2022/06/30 02:00:39;;;;;;;10.37;5.97;;;;;;;;;;4996096;28;20537;-40
2022/06/30 02:03:06;;;;;;;13.00;6.77;;;;;;;;;;4997022;28;20648;-41
2022/06/30 02:05:32;;;;;;;13.53;6.40;;;;;;;;;;4992901;28;20853;-41
2022/06/30 02:07:58;;;;;;;11.10;6.30;;;;;;;;;;4993149;28;20176;-41
2022/06/30 02:10:24;;;;;;;11.63;6.07;;;;;;;;;;4990783;28;20631;-39
2022/06/30 02:12:51;;;;;;;10.50;6.37;;;;;;;;;;5002404;28;20177;-42
2022/06/30 02:15:19;;;;;;;13.57;6.53;;;;;;;;;;4989958;28;20261;-41
2022/06/30 02:17:46;;;;;;;12.87;6.33;;;;;;;;;;4999375;28;20617;-41
2022/06/30 02:20:13;;;;;;;8.80;5.90;;;;;;;;;;5001118;28;20487;-41
2022/06/30 02:22:40;;;;;;;14.17;6.83;;;;;;;;;;5000647;28;20654;-42
2022/06/30 02:25:06;;;;;;;14.03;7.20;;;;;;;;;;5000155;28;20187;-42
2022/06/30 02:27:32;;;;;;;14.73;7.90;;;;;;;;;;5002000;28;20370;-42
2022/06/30 02:29:59;;;;;;;10.60;7.40;;;;;;;;;;4999877;28;20747;-42
2022/06/30 02:32:25;;;;;;;17.10;7.50;;;;;;;;;;4999516;28;20203;-42
2022/06/30 02:34:51;;;;;;;10.53;6.53;;;;;;;;;;5002364;28;20207;-42
2022/06/30 02:37:17;;;;;;;8.87;5.83;;;;;;;;;;5001659;28;20490;-41
2022/06/30 02:39:43;;;;;;;14.20;7.60;;;;;;;;;;5000573;28;20636;-42
2022/06/30 02:42:10;;;;;;;10.60;6.33;;;;;;;;;;4998883;28;20618;-40
2022/06/30 02:44:36;;;;;;;10.33;6.70;;;;;;;;;;5000248;28;20726;-42
2022/06/30 02:47:02;;;;;;;13.97;6.70;;;;;;;;;;4999014;28;20575;-42
2022/06/30 02:49:28;;;;;;;12.37;7.40;;;;;;;;;;4996304;28;20728;-42
2022/06/30 02:51:55;;;;;;;13.07;6.83;;;;;;;;;;4999683;28;20613;-40
2022/06/30 02:54:21;;;;;;;13.33;6.33;;;;;;;;;;5000993;28;20181;-41
2022/06/30 02:56:47;;;;;;;9.73;6.30;;;;;;;;;;4994279;28;20569;-42
2022/06/30 02:59:13;;;;;;;15.07;6.70;;;;;;;;;;4997530;28;20204;-42
2022/06/30 03:01:40;;;;;;;10.53;6.00;;;;;;;;;;4997444;28;20187;-42
2022/06/30 03:04:06;;;;;;;11.70;5.70;;;;;;;;;;4996033;28;21002;-42
2022/06/30 03:06:34;;;;;;;15.13;5.77;;;;;;;;;;4999254;28;20180;-42
2022/06/30 03:09:00;;;;;;;16.57;7.97;;;;;;;;;;4995828;28;20735;-41
2022/06/30 03:11:27;;;;;;;18.17;10.70;;;;;;;;;;4994300;28;20189;-40
2022/06/30 03:13:53;;;;;;;18.07;11.10;;;;;;;;;;4990814;28;20184;-41
2022/06/30 03:16:19;;;;;;;21.83;12.50;;;;;;;;;;5000677;28;20184;-41
2022/06/30 03:18:45;;;;;;;21.13;12.97;;;;;;;;;;4998338;28;20180;-41
2022/06/30 03:21:12;;;;;;;20.13;12.40;;;;;;;;;;5000031;28;20172;-44
2022/06/30 03:23:38;;;;;;;21.20;12.40;;;;;;;;;;5000481;28;20271;-43
2022/06/30 03:26:04;;;;;;;19.40;12.20;;;;;;;;;;4999022;28;20764;-41
2022/06/30 03:28:31;;;;;;;19.03;11.90;;;;;;;;;;4997342;28;21024;-41
2022/06/30 03:30:58;;;;;;;13.07;10.17;;;;;;;;;;4999739;28;20191;-41
2022/06/30 03:33:24;;;;;;;20.37;11.10;;;;;;;;;;5000368;28;20315;-41
2022/06/30 03:35:51;;;;;;;16.73;10.90;;;;;;;;;;4998719;28;20259;-39
2022/06/30 03:38:17;;;;;;;17.03;11.03;;;;;;;;;;4998195;28;20395;-41
2022/06/30 03:40:43;;;;;;;19.50;10.80;;;;;;;;;;4999480;28;20203;-41
2022/06/30 03:43:10;;;;;;;20.70;11.23;;;;;;;;;;4999950;28;20838;-41
2022/06/30 03:45:36;;;;;;;17.20;9.33;;;;;;;;;;4998390;28;20176;-40
2022/06/30 03:48:03;;;;;;;16.10;8.57;;;;;;;;;;5000354;28;20773;-41
2022/06/30 03:50:30;;;;;;;12.57;7.80;;;;;;;;;;4999554;28;20176;-41
2022/06/30 03:52:56;;;;;;;14.57;8.17;;;;;;;;;;4999213;28;20180;-41
2022/06/30 03:55:23;;;;;;;13.07;7.07;;;;;;;;;;4999389;28;20611;-41
2022/06/30 03:57:49;;;;;;;12.60;7.00;;;;;;;;;;5000181;28;20492;-40
2022/06/30 04:00:15;;;;;;;11.30;5.83;;;;;;;;;;4998620;28;20204;-41
2022/06/30 04:02:41;;;;;;;10.27;5.83;;;;;;;;;;4997677;28;20514;-40
2022/06/30 04:05:08;;;;;;;10.57;5.40;;;;;;;;;;4998049;28;20569;-41
2022/06/30 04:07:40;;;;;;;15.60;6.23;;;;;;;;;;4997675;28;20184;-41
2022/06/30 04:10:07;;;;;;;9.57;5.60;;;;;;;;;;4998330;28;20283;-41
2022/06/30 04:12:33;;;;;;;15.33;6.23;;;;;;;;;;4999274;28;20223;-41
2022/06/30 04:14:59;;;;;;;14.20;6.30;;;;;;;;;;4996182;28;20172;-40
2022/06/30 04:17:25;;;;;;;15.07;6.07;;;;;;;;;;4996654;28;20234;-41
2022/06/30 04:19:51;;;;;;;15.73;6.13;;;;;;;;;;5000296;28;20191;-41
2022/06/30 04:22:17;;;;;;;16.23;5.87;;;;;;;;;;4994075;28;20774;-39
2022/06/30 04:24:43;;;;;;;10.20;5.30;;;;;;;;;;4997866;28;20702;-41
2022/06/30 04:27:10;;;;;;;13.07;5.50;;;;;;;;;;4997082;28;20172;-41
2022/06/30 04:29:36;;;;;;;14.73;6.13;;;;;;;;;;4994845;28;20682;-41
2022/06/30 04:34:47;;;;;;;13.93;4.97;;;;;;;;;;5000184;28;20234;-41
2022/06/30 04:37:13;;;;;;;15.00;6.33;;;;;;;;;;4999012;28;20482;-40
2022/06/30 04:39:39;;;;;;;11.80;5.50;;;;;;;;;;4999900;28;20486;-41
2022/06/30 04:42:05;;;;;;;15.33;7.23;;;;;;;;;;4996544;28;20228;-41
2022/06/30 04:44:31;;;;;;;10.70;6.03;;;;;;;;;;4999091;28;20708;-41
2022/06/30 04:46:57;;;;;;;10.57;6.20;;;;;;;;;;5000085;28;20756;-41
2022/06/30 04:49:23;;;;;;;13.37;7.30;;;;;;;;;;4990954;28;20626;-41
2022/06/30 04:51:50;;;;;;;10.00;7.07;;;;;;;;;;4992826;28;20188;-41
2022/06/30 04:54:16;;;;;;;12.77;7.33;;;;;;;;;;4997688;28;20181;-41
2022/06/30 04:56:43;;;;;;;15.27;7.80;;;;;;;;;;4995936;28;20180;-41
2022/06/30 04:59:09;;;;;;;12.07;7.50;;;;;;;;;;5002995;28;20203;-41
2022/06/30 05:01:35;;;;;;;16.77;7.40;;;;;;;;;;4999938;28;20445;-41
2022/06/30 05:04:01;;;;;;;12.83;6.97;;;;;;;;;;4994934;28;20541;-41
2022/06/30 05:06:27;;;;;;;13.97;7.53;;;;;;;;;;5002652;28;20245;-39
2022/06/30 05:08:53;;;;;;;11.43;6.23;;;;;;;;;;5012839;28;20746;-40
2022/06/30 05:11:19;;;;;;;12.43;5.50;;;;;;;;;;5006106;28;21307;-42
2022/06/30 05:13:45;;;;;;;8.97;5.17;;;;;;;;;;5012345;28;20671;-41
2022/06/30 05:16:11;;;;;;;8.47;5.00;;;;;;;;;;5006314;28;20196;-41
2022/06/30 05:18:37;;;;;;;6.60;4.10;;;;;;;;;;4998943;28;20449;-41
2022/06/30 05:21:03;;;;;;;11.43;4.10;;;;;;;;;;4989858;28;20968;-41
2022/06/30 05:23:29;;;;;;;7.90;2.90;;;;;;;;;;4999858;28;20180;-41
2022/06/30 05:28:40;;;;;;;11.50;2.87;;;;;;;;;;4999795;28;20226;-41
2022/06/30 05:31:06;;;;;;;9.67;2.83;;;;;;;;;;5006543;28;20470;-41
2022/06/30 05:33:32;;;;;;;7.07;2.50;;;;;;;;;;5004819;28;20175;-42
2022/06/30 05:35:59;;;;;;;8.10;2.40;;;;;;;;;;4998666;28;20183;-41
2022/06/30 05:38:25;;;;;;;8.17;2.63;;;;;;;;;;5001703;28;20234;-41
2022/06/30 05:40:51;;;;;;;8.73;3.07;;;;;;;;;;4997649;28;20405;-40
2022/06/30 05:43:18;;;;;;;6.97;2.57;;;;;;;;;;5000739;28;20393;-41
2022/06/30 05:45:50;;;;;;;11.10;2.97;;;;;;;;;;5000426;28;20172;-41
2022/06/30 05:48:17;;;;;;;8.10;2.80;;;;;;;;;;5003564;28;20175;-41
2022/06/30 05:50:44;;;;;;;8.63;3.40;;;;;;;;;;5014916;28;20298;-41
2022/06/30 05:53:10;;;;;;;6.53;2.60;;;;;;;;;;5019642;28;20265;-41
2022/06/30 05:55:36;;;;;;;5.57;2.83;;;;;;;;;;5017625;28;20541;-41
2022/06/30 05:58:03;;;;;;;7.67;3.07;;;;;;;;;;5012151;28;20214;-41
2022/06/30 06:00:30;;;;;;;12.40;3.00;;;;;;;;;;5013938;28;20657;-40
2022/06/30 06:02:56;;;;;;;8.23;2.90;;;;;;;;;;5017574;28;20207;-41
2022/06/30 06:05:23;;;;;;;9.83;2.90;;;;;;;;;;5017646;28;20477;-41
2022/06/30 06:07:49;;;;;;;12.90;2.90;;;;;;;;;;5015833;28;20627;-41
2022/06/30 06:10:16;;;;;;;13.77;3.00;;;;;;;;;;5017723;28;20333;-41
2022/06/30 06:12:43;;;;;;;5.53;2.67;;;;;;;;;;5018535;28;20839;-41
2022/06/30 06:15:10;;;;;;;9.50;2.70;;;;;;;;;;5014652;28;20188;-41
2022/06/30 06:17:40;;;;;;;8.93;3.00;;;;;;;;;;5018012;28;20187;-41
2022/06/30 06:20:07;;;;;;;4.73;2.50;;;;;;;;;;5017389;28;20414;-41
2022/06/30 06:22:33;;;;;;;9.70;2.67;;;;;;;;;;5017038;28;20200;-40
2022/06/30 06:24:59;;;;;;;6.80;2.67;;;;;;;;;;5020157;28;20172;-40
2022/06/30 06:27:25;;;;;;;9.83;2.93;;;;;;;;;;5013983;28;20585;-41
2022/06/30 06:29:51;;;;;;;8.67;2.80;;;;;;;;;;5014601;28;20184;-41
2022/06/30 06:32:17;;;;;;;5.47;3.00;;;;;;;;;;5014874;28;20273;-41
2022/06/30 06:34:43;;;;;;;10.07;3.43;;;;;;;;;;5015160;28;20184;-41
2022/06/30 06:37:09;;;;;;;5.40;2.90;;;;;;;;;;5012771;28;20176;-41
2022/06/30 06:39:36;;;;;;;11.97;3.33;;;;;;;;;;5014201;28;20465;-41
2022/06/30 06:42:02;;;;;;;6.70;2.90;;;;;;;;;;5013167;28;20426;-41
2022/06/30 06:44:28;;;;;;;11.20;3.53;;;;;;;;;;5009968;28;20183;-41
2022/06/30 06:46:54;;;;;;;8.57;3.50;;;;;;;;;;5013775;28;20693;-41
2022/06/30 06:49:20;;;;;;;9.17;3.50;;;;;;;;;;5017604;28;20212;-41
2022/06/30 06:51:46;;;;;;;7.60;3.10;;;;;;;;;;5015499;28;20180;-41
2022/06/30 06:54:12;;;;;;;9.20;3.47;;;;;;;;;;5013800;28;20210;-41
2022/06/30 06:56:38;;;;;;;10.77;3.77;;;;;;;;;;5013833;28;20179;-41
2022/06/30 06:59:04;;;;;;;9.00;3.67;;;;;;;;;;5013299;28;20611;-40
2022/06/30 07:01:31;;;;;;;10.03;3.40;;;;;;;;;;5012426;28;20450;-41
2022/06/30 07:03:57;;;;;;;10.63;4.00;;;;;;;;;;5013549;28;21084;-41
2022/06/30 07:06:24;;;;;;;8.53;4.53;;;;;;;;;;5015064;28;20180;-41
2022/06/30 07:08:50;;;;;;;12.23;4.30;;;;;;;;;;5013333;28;20275;-42
2022/06/30 07:11:16;;;;;;;8.63;4.80;;;;;;;;;;5009275;28;20642;-40
2022/06/30 07:13:42;;;;;;;14.43;4.60;;;;;;;;;;5005857;28;20214;-41
2022/06/30 07:16:08;;;;;;;7.57;3.53;;;;;;;;;;5012884;28;20191;-41
2022/06/30 07:18:34;;;;;;;12.17;4.23;;;;;;;;;;5007167;28;20169;-41
2022/06/30 07:21:00;;;;;;;13.53;4.50;;;;;;;;;;5006267;28;20997;-41
2022/06/30 07:23:26;;;;;;;7.23;3.53;;;;;;;;;;5009234;28;20207;-41
2022/06/30 07:25:52;;;;;;;8.57;4.20;;;;;;;;;;5008428;28;20715;-41
2022/06/30 07:28:18;;;;;;;8.53;4.20;;;;;;;;;;5003436;28;20180;-42
2022/06/30 07:30:44;;;;;;;9.40;3.80;;;;;;;;;;5003013;28;20183;-42
2022/06/30 07:33:10;;;;;;;9.30;4.00;;;;;;;;;;4997384;28;20316;-42
2022/06/30 07:35:37;;;;;;;10.63;4.03;;;;;;;;;;4996710;28;20176;-41
2022/06/30 07:38:03;;;;;;;8.80;3.90;;;;;;;;;;5007923;28;20172;-40
2022/06/30 07:40:29;;;;;;;8.90;3.53;;;;;;;;;;5013802;28;20196;-41
2022/06/30 07:42:55;;;;;;;7.97;3.07;;;;;;;;;;5009961;28;20214;-41
2022/06/30 07:45:22;;;;;;;8.90;3.30;;;;;;;;;;5011849;28;20241;-41
2022/06/30 07:47:51;;;;;;;11.00;3.53;;;;;;;;;;5009039;28;20484;-41
2022/06/30 07:50:17;;;;;;;9.63;3.57;;;;;;;;;;5008508;28;20627;-40
2022/06/30 07:52:44;;;;;;;7.87;3.30;;;;;;;;;;5015646;28;20723;-41
2022/06/30 07:55:10;;;;;;;7.83;3.00;;;;;;;;;;5013945;28;20287;-41
2022/06/30 07:57:37;;;;;;;9.13;2.80;;;;;;;;;;5010073;28;20180;-42
2022/06/30 08:00:05;;;;;;;6.07;2.67;;;;;;;;;;5012623;28;20200;-40
2022/06/30 08:02:31;;;;;;;5.73;2.80;;;;;;;;;;5014362;28;20576;-41
2022/06/30 08:04:57;;;;;;;7.07;3.17;;;;;;;;;;5013560;28;20181;-41
2022/06/30 08:07:23;;;;;;;9.13;3.57;;;;;;;;;;5010717;28;20384;-42
2022/06/30 08:09:49;;;;;;;8.53;3.20;;;;;;;;;;5009970;28;20243;-41
2022/06/30 08:12:15;;;;;;;9.00;2.97;;;;;;;;;;5012674;28;21255;-42
2022/06/30 08:14:41;;;;;;;9.63;3.30;;;;;;;;;;5010909;28;20198;-41
2022/06/30 08:17:07;;;;;;;10.90;2.77;;;;;;;;;;5014243;28;20206;-42
2022/06/30 08:19:33;;;;;;;7.73;2.63;;;;;;;;;;5012218;28;20242;-41
2022/06/30 08:22:00;;;;;;;9.00;2.90;;;;;;;;;;5012702;28;20789;-42
2022/06/30 08:24:26;;;;;;;9.17;2.87;;;;;;;;;;5012051;28;20561;-41
2022/06/30 08:26:52;;;;;;;8.63;3.20;;;;;;;;;;5013635;28;20459;-41
2022/06/30 08:29:19;;;;;;;7.77;3.00;;;;;;;;;;5007289;28;20218;-42
2022/06/30 08:31:45;;;;;;;5.30;2.50;;;;;;;;;;5007345;28;20261;-41
2022/06/30 08:34:11;;;;;;;9.67;3.00;;;;;;;;;;5014409;28;20180;-41
2022/06/30 08:36:37;;;;;;;6.17;2.70;;;;;;;;;;5013804;28;20678;-42
2022/06/30 08:39:04;;;;;;;8.30;3.30;;;;;;;;;;5012955;28;20581;-41
2022/06/30 08:44:19;;;;;;;9.00;2.90;;;;;;;;;;5010918;28;20292;-41
2022/06/30 08:46:46;;;;;;;10.13;2.70;;;;;;;;;;5011909;28;20211;-42
2022/06/30 08:49:12;;;;;;;5.17;2.83;;;;;;;;;;5016359;28;20176;-41
2022/06/30 08:51:39;;;;;;;8.20;3.23;;;;;;;;;;5012004;28;20614;-41
2022/06/30 08:54:07;;;;;;;5.67;2.60;;;;;;;;;;5010242;28;20183;-41
2022/06/30 08:56:34;;;;;;;8.10;2.63;;;;;;;;;;5009897;28;20835;-41
2022/06/30 08:59:04;;;;;;;5.70;2.53;;;;;;;;;;5013363;28;20176;-41
2022/06/30 09:01:31;;;;;;;6.43;2.90;;;;;;;;;;5013306;28;20172;-41
2022/06/30 09:03:57;;;;;;;8.90;2.73;;;;;;;;;;5011880;28;20188;-42
2022/06/30 09:06:23;;;;;;;9.17;3.13;;;;;;;;;;5015074;28;20704;-41
2022/06/30 09:08:50;;;;;;;7.63;3.37;;;;;;;;;;5011640;28;20874;-43
2022/06/30 09:11:16;;;;;;;7.13;3.30;;;;;;;;;;5007399;28;20961;-40
2022/06/30 09:13:42;;;;;;;11.00;3.57;;;;;;;;;;5013082;28;20282;-41
2022/06/30 09:16:08;;;;;;;11.93;3.87;;;;;;;;;;5012717;28;20431;-41
2022/06/30 09:18:34;;;;;;;8.17;3.23;;;;;;;;;;5010818;28;20172;-41
2022/06/30 09:21:07;;;;;;;7.57;3.47;;;;;;;;;;5009709;28;20823;-41
2022/06/30 09:23:36;;;;;;;12.97;3.77;;;;;;;;;;5014997;28;20628;-41
2022/06/30 09:26:03;;;;;;;7.00;2.97;;;;;;;;;;5011436;28;20743;-41
2022/06/30 09:28:43;;;;;;;14.80;4.20;;;;;;;;;;5008748;28;20176;-42
2022/06/30 09:31:09;;;;;;;10.23;3.13;;;;;;;;;;5014831;28;20298;-41
2022/06/30 09:33:38;;;;;;;11.13;3.10;;;;;;;;;;5015214;28;20236;-41
2022/06/30 09:36:23;;;;;;;10.03;3.20;;;;;;;;;;5011825;28;20616;-41
2022/06/30 09:39:05;;;;;;;8.93;3.20;;;;;;;;;;5012987;28;20265;-42
2022/06/30 09:41:32;;;;;;;10.40;3.43;;;;;;;;;;5012021;28;20172;-41
2022/06/30 09:43:58;;;;;;;6.47;3.37;;;;;;;;;;5011762;28;20274;-42
2022/06/30 09:46:25;;;;;;;9.30;3.40;;;;;;;;;;5012660;28;20168;-42
2022/06/30 09:48:51;;;;;;;10.27;3.10;;;;;;;;;;5015688;28;20601;-42
2022/06/30 09:51:17;;;;;;;9.93;3.50;;;;;;;;;;5011448;28;20766;-41
2022/06/30 09:53:44;;;;;;;11.90;3.80;;;;;;;;;;5010523;28;20193;-40
2022/06/30 09:56:11;;;;;;;7.90;3.60;;;;;;;;;;5012958;28;20534;-41
2022/06/30 09:58:46;;;;;;;8.93;3.10;;;;;;;;;;5013865;28;20413;-42
2022/06/30 10:01:12;;;;;;;9.23;3.50;;;;;;;;;;5012343;28;20620;-42
2022/06/30 10:03:45;;;;;;;10.33;3.87;;;;;;;;;;5009161;28;20173;-41
2022/06/30 10:06:13;;;;;;;8.00;3.23;;;;;;;;;;5013225;28;20245;-42
2022/06/30 10:08:40;;;;;;;7.20;3.20;;;;;;;;;;5014312;28;20811;-42
2022/06/30 10:11:07;;;;;;;7.53;3.37;;;;;;;;;;5007405;28;20691;-42
2022/06/30 10:13:37;;;;;;;7.73;3.10;;;;;;;;;;5010669;28;20251;-42
2022/06/30 10:16:04;;;;;;;7.40;2.93;;;;;;;;;;5011305;28;20191;-42
2022/06/30 10:18:31;;;;;;;10.10;3.37;;;;;;;;;;5014900;28;20191;-42
2022/06/30 10:20:58;;;;;;;12.57;3.13;;;;;;;;;;5009553;28;20206;-41
2022/06/30 10:23:25;;;;;;;8.83;3.70;;;;;;;;;;5009467;28;20184;-40
2022/06/30 10:25:52;;;;;;;8.70;3.10;;;;;;;;;;5010750;28;20254;-41
2022/06/30 10:28:19;;;;;;;8.60;3.73;;;;;;;;;;5009309;28;20185;-43
2022/06/30 10:30:48;;;;;;;10.23;3.73;;;;;;;;;;5009909;28;20810;-42
2022/06/30 10:33:33;;;;;;;9.93;3.63;;;;;;;;;;5011352;28;20288;-42
2022/06/30 10:36:17;;;;;;;12.03;3.70;;;;;;;;;;5017255;28;20173;-42
2022/06/30 10:39:03;;;;;;;16.40;6.17;;;;;;;;;;5011556;28;20643;-41
2022/06/30 10:41:29;;;;;;;9.33;3.80;;;;;;;;;;5015202;28;20177;-41
2022/06/30 10:44:04;;;;;;;11.23;4.20;;;;;;;;;;5014730;28;20230;-41
2022/06/30 10:46:34;;;;;;;10.13;4.43;;;;;;;;;;5012828;28;20185;-41
2022/06/30 10:49:07;;;;;;;10.57;4.63;;;;;;;;;;5012703;28;20172;-42
2022/06/30 10:51:33;;;;;;;8.80;3.60;;;;;;;;;;5011917;28;20288;-42
2022/06/30 10:53:59;;;;;;;7.00;3.70;;;;;;;;;;5011155;28;20296;-42
2022/06/30 10:56:45;;;;;;;9.33;4.33;;;;;;;;;;5012795;28;20231;-40
2022/06/30 10:59:13;;;;;;;8.60;3.70;;;;;;;;;;5018103;28;20249;-42
2022/06/30 11:01:57;;;;;;;10.90;4.23;;;;;;;;;;5017152;28;20185;-42
2022/06/30 11:04:24;;;;;;;9.77;3.87;;;;;;;;;;5012448;28;20223;-42
2022/06/30 11:07:01;;;;;;;9.93;3.70;;;;;;;;;;5014137;28;20184;-41
2022/06/30 11:09:48;;;;;;;9.97;3.57;;;;;;;;;;5016286;28;20700;-41
2022/06/30 11:12:24;;;;;;;7.10;3.30;;;;;;;;;;5012174;28;20527;-41
2022/06/30 11:14:50;;;;;;;9.53;3.77;;;;;;;;;;5015317;28;20538;-41
2022/06/30 11:17:17;;;;;;;8.03;3.60;;;;;;;;;;5017229;28;20197;-41
2022/06/30 11:19:43;;;;;;;12.30;3.87;;;;;;;;;;5013765;28;20202;-40
2022/06/30 11:22:14;;;;;;;9.23;4.10;;;;;;;;;;5014795;28;20173;-41
2022/06/30 11:24:42;;;;;;;8.43;3.40;;;;;;;;;;5011968;28;20648;-41
2022/06/30 11:27:18;;;;;;;7.33;3.53;;;;;;;;;;5009767;28;20177;-41
2022/06/30 11:29:45;;;;;;;7.47;3.00;;;;;;;;;;5016345;28;20234;-41
2022/06/30 11:32:11;;;;;;;9.33;3.47;;;;;;;;;;5014340;28;20189;-40
2022/06/30 11:34:40;;;;;;;9.37;3.60;;;;;;;;;;5010346;28;21222;-41
2022/06/30 11:37:07;;;;;;;11.37;3.10;;;;;;;;;;5011316;28;21029;-41
2022/06/30 11:39:33;;;;;;;8.23;2.93;;;;;;;;;;5009478;28;20271;-41
2022/06/30 11:42:02;;;;;;;8.60;3.50;;;;;;;;;;5014705;28;20185;-42
2022/06/30 11:44:34;;;;;;;9.00;3.40;;;;;;;;;;5008886;28;20479;-42
2022/06/30 11:47:03;;;;;;;8.90;3.33;;;;;;;;;;5012438;28;20180;-42
2022/06/30 11:49:41;;;;;;;9.77;3.37;;;;;;;;;;5015275;28;20695;-42
2022/06/30 11:52:11;;;;;;;10.27;3.47;;;;;;;;;;5014632;28;20181;-41
2022/06/30 11:54:38;;;;;;;6.10;2.90;;;;;;;;;;5013347;28;20252;-41
2022/06/30 11:57:04;;;;;;;8.07;3.40;;;;;;;;;;5015891;28;20956;-42
2022/06/30 11:59:30;;;;;;;8.37;3.30;;;;;;;;;;5016581;28;20306;-41
2022/06/30 12:02:03;;;;;;;7.10;3.20;;;;;;;;;;5012569;28;21183;-41
2022/06/30 12:04:30;;;;;;;10.17;3.13;;;;;;;;;;5011758;28;20962;-41
2022/06/30 12:06:56;;;;;;;9.63;3.47;;;;;;;;;;5014096;28;20863;-41
2022/06/30 12:09:22;;;;;;;8.37;3.20;;;;;;;;;;5008687;28;20813;-41
2022/06/30 12:11:48;;;;;;;7.23;2.53;;;;;;;;;;5012647;28;20758;-41
2022/06/30 12:14:15;;;;;;;8.20;3.10;;;;;;;;;;5010099;28;20358;-41
2022/06/30 12:16:41;;;;;;;7.00;3.00;;;;;;;;;;5016586;28;20194;-40
2022/06/30 12:19:07;;;;;;;8.40;3.10;;;;;;;;;;5008726;28;20265;-41
2022/06/30 12:21:34;;;;;;;10.90;3.50;;;;;;;;;;5013155;28;20899;-41
2022/06/30 12:24:00;;;;;;;7.23;2.93;;;;;;;;;;5011047;28;20603;-41
2022/06/30 12:26:26;;;;;;;9.70;2.90;;;;;;;;;;5013272;28;20412;-41
2022/06/30 12:28:56;;;;;;;10.53;3.20;;;;;;;;;;5009755;28;20705;-41
2022/06/30 12:31:30;;;;;;;7.03;3.30;;;;;;;;;;5014154;28;20184;-41
2022/06/30 12:33:58;;;;;;;9.83;3.57;;;;;;;;;;5010265;28;20593;-41
2022/06/30 12:36:24;;;;;;;8.57;2.87;;;;;;;;;;5007402;28;20723;-41
2022/06/30 12:38:50;;;;;;;6.90;2.97;;;;;;;;;;5014218;28;20176;-39
2022/06/30 12:41:17;;;;;;;8.17;3.37;;;;;;;;;;5010532;28;20718;-41
2022/06/30 12:43:47;;;;;;;7.10;3.00;;;;;;;;;;5010147;28;20652;-41
2022/06/30 12:46:14;;;;;;;7.43;2.90;;;;;;;;;;5011196;28;20802;-42
2022/06/30 12:48:40;;;;;;;10.87;3.33;;;;;;;;;;5014436;28;20487;-42
2022/06/30 12:51:06;;;;;;;5.07;2.63;;;;;;;;;;5011161;28;20373;-42
2022/06/30 12:53:32;;;;;;;11.90;3.37;;;;;;;;;;5013056;28;20188;-41
2022/06/30 12:56:06;;;;;;;6.83;2.73;;;;;;;;;;5010993;28;20222;-40
2022/06/30 12:58:43;;;;;;;7.63;2.70;;;;;;;;;;5008282;28;20592;-42
2022/06/30 13:01:09;;;;;;;5.37;2.37;;;;;;;;;;5011417;28;20211;-42
2022/06/30 13:03:48;;;;;;;7.93;2.50;;;;;;;;;;5014413;28;20219;-42
2022/06/30 13:06:14;;;;;;;8.53;2.90;;;;;;;;;;5009241;28;20273;-41
2022/06/30 13:08:43;;;;;;;6.77;3.17;;;;;;;;;;5010506;28;20715;-41
2022/06/30 13:11:11;;;;;;;5.90;2.73;;;;;;;;;;5014147;28;20180;-42
2022/06/30 13:13:37;;;;;;;6.17;2.90;;;;;;;;;;5011743;28;21011;-42
2022/06/30 13:16:03;;;;;;;7.57;2.77;;;;;;;;;;5009125;28;20651;-41
2022/06/30 13:18:30;;;;;;;6.87;2.80;;;;;;;;;;5013770;28;20892;-41
2022/06/30 13:20:56;;;;;;;7.47;2.70;;;;;;;;;;5015202;28;20591;-41
2022/06/30 13:23:22;;;;;;;6.27;2.57;;;;;;;;;;5013874;28;20670;-41
2022/06/30 13:25:48;;;;;;;4.67;2.47;;;;;;;;;;5007244;28;20632;-42
2022/06/30 13:28:14;;;;;;;6.83;2.57;;;;;;;;;;5011868;28;20231;-42
2022/06/30 13:30:40;;;;;;;9.23;2.57;;;;;;;;;;5009391;28;20178;-41
2022/06/30 13:33:06;;;;;;;7.03;2.53;;;;;;;;;;5009780;28;20702;-42
2022/06/30 13:35:32;;;;;;;6.40;2.80;;;;;;;;;;5011694;28;20217;-41
2022/06/30 13:37:58;;;;;;;8.07;2.37;;;;;;;;;;5012363;28;20616;-41
2022/06/30 13:40:24;;;;;;;8.87;3.20;;;;;;;;;;5001806;28;20239;-42
2022/06/30 13:42:50;;;;;;;6.73;2.20;;;;;;;;;;5006320;28;20175;-41
2022/06/30 13:45:16;;;;;;;6.13;2.70;;;;;;;;;;5008173;28;20650;-42
2022/06/30 13:47:42;;;;;;;5.30;2.20;;;;;;;;;;5013946;28;20861;-41
2022/06/30 13:50:08;;;;;;;5.33;2.30;;;;;;;;;;5010962;28;20182;-41
2022/06/30 13:52:35;;;;;;;5.97;2.50;;;;;;;;;;5004584;28;20296;-41
2022/06/30 13:55:02;;;;;;;10.07;2.77;;;;;;;;;;5011885;28;20199;-43
2022/06/30 13:57:28;;;;;;;4.70;2.50;;;;;;;;;;5014600;28;20486;-42
2022/06/30 13:59:54;;;;;;;8.40;2.53;;;;;;;;;;5011616;28;20473;-42
2022/06/30 14:02:20;;;;;;;5.70;2.63;;;;;;;;;;5010735;28;20458;-42
2022/06/30 14:04:46;;;;;;;6.47;2.83;;;;;;;;;;5012320;28;20613;-40
2022/06/30 14:07:12;;;;;;;6.07;2.60;;;;;;;;;;5013721;28;20178;-42
2022/06/30 14:09:38;;;;;;;4.20;2.40;;;;;;;;;;5013581;28;20253;-42
2022/06/30 14:12:05;;;;;;;8.07;2.40;;;;;;;;;;5011834;28;20222;-41
2022/06/30 14:14:31;;;;;;;5.10;2.20;;;;;;;;;;5014856;28;20632;-41
2022/06/30 14:16:57;;;;;;;7.60;2.27;;;;;;;;;;5017173;28;20221;-41
2022/06/30 14:19:24;;;;;;;7.83;2.60;;;;;;;;;;5013637;28;20746;-42
2022/06/30 14:21:50;;;;;;;4.33;2.23;;;;;;;;;;5015370;28;20178;-42
2022/06/30 14:24:16;;;;;;;5.60;2.53;;;;;;;;;;5018084;28;20171;-42
2022/06/30 14:26:42;;;;;;;9.83;2.87;;;;;;;;;;5014186;28;20179;-42
2022/06/30 14:29:10;;;;;;;5.13;2.30;;;;;;;;;;5011495;28;20505;-41
2022/06/30 14:31:36;;;;;;;7.43;2.40;;;;;;;;;;5017903;28;20190;-42
2022/06/30 14:34:03;;;;;;;4.53;2.30;;;;;;;;;;5019953;28;20183;-42
2022/06/30 14:36:29;;;;;;;5.93;2.57;;;;;;;;;;5018813;28;20179;-42
2022/06/30 14:38:55;;;;;;;7.50;2.30;;;;;;;;;;5014227;28;21018;-42
2022/06/30 14:44:06;;;;;;;6.77;2.47;;;;;;;;;;5018363;28;20996;-42
2022/06/30 14:46:32;;;;;;;5.33;2.03;;;;;;;;;;5020036;28;20184;-42
2022/06/30 14:48:58;;;;;;;6.30;2.42;;;;;;;;;;5018278;28;20512;-42